Time;durP1;ratioP1;P1;durP2;ratioP2;P2;SDS_P1;SDS_P2;PMS_P1;PMS_P2;Temp;Humidity;BMP_temperature;BMP_pressure;BME280_temperature;BME280_humidity;BME280_pressure;Samples;Min_cycle;Max_cycle;Signal;HPM_P1;HPM_P2
2023/10/05 00:02:26;;;;;;;13.17;4.80;;;;;;;16.88;53.23;101340.17;124373;1102;104185;-76
2023/10/05 00:04:58;;;;;;;14.07;5.37;;;;;;;16.82;53.02;101336.46;124444;1102;104067;-76
2023/10/05 00:07:32;;;;;;;14.13;5.30;;;;;;;16.79;53.17;101341.69;124470;1102;104121;-76
2023/10/05 00:10:04;;;;;;;12.80;5.30;;;;;;;16.73;53.50;101350.38;124469;1102;104188;-77
2023/10/05 00:12:36;;;;;;;15.17;5.33;;;;;;;16.66;53.39;101344.05;124489;1102;104213;-76
2023/10/05 00:15:11;;;;;;;14.10;5.67;;;;;;;16.61;52.96;101342.13;124430;1101;102444;-76
2023/10/05 00:17:43;;;;;;;15.67;6.00;;;;;;;16.59;53.12;101335.91;124382;1102;104214;-76
2023/10/05 00:20:22;;;;;;;14.53;5.47;;;;;;;16.62;53.25;101349.23;124460;1102;104102;-77
2023/10/05 00:22:57;;;;;;;14.60;5.17;;;;;;;16.65;53.44;101359.91;125744;1101;103273;-77
2023/10/05 00:25:29;;;;;;;12.83;5.47;;;;;;;16.62;52.84;101355.42;124348;1102;101832;-76
2023/10/05 00:28:04;;;;;;;16.10;5.40;;;;;;;16.61;53.26;101363.33;124354;1102;104332;-76
2023/10/05 00:30:36;;;;;;;14.77;6.00;;;;;;;16.62;53.02;101365.13;124316;1102;101880;-76
2023/10/05 00:33:10;;;;;;;12.77;5.03;;;;;;;16.56;53.32;101357.91;124473;1102;101863;-76
2023/10/05 00:35:42;;;;;;;17.00;5.30;;;;;;;16.52;53.74;101364.02;124407;1102;104235;-76
2023/10/05 00:38:15;;;;;;;14.40;5.20;;;;;;;16.50;53.26;101357.76;124407;1100;104214;-76
2023/10/05 00:40:57;;;;;;;12.97;4.97;;;;;;;16.45;53.85;101362.05;124402;1102;103693;-76
2023/10/05 00:43:29;;;;;;;12.17;4.67;;;;;;;16.40;53.42;101367.23;124270;1101;104194;-76
2023/10/05 00:46:00;;;;;;;12.23;4.90;;;;;;;16.41;53.97;101366.39;124378;1102;104182;-76
2023/10/05 00:48:36;;;;;;;13.03;5.07;;;;;;;16.35;53.45;101353.88;124320;1100;104170;-76
2023/10/05 00:51:12;;;;;;;14.00;5.03;;;;;;;16.47;53.37;101366.55;124295;1102;102523;-75
2023/10/05 00:53:46;;;;;;;14.43;5.30;;;;;;;16.46;53.61;101375.34;124267;1102;104080;-76
2023/10/05 00:56:18;;;;;;;11.93;5.30;;;;;;;16.44;53.63;101374.41;124221;1102;104169;-76
2023/10/05 00:58:54;;;;;;;10.70;5.07;;;;;;;16.44;54.22;101381.45;124332;1101;104182;-75
2023/10/05 01:01:32;;;;;;;12.27;4.97;;;;;;;16.44;54.21;101379.72;124279;1102;101948;-75
2023/10/05 01:04:20;;;;;;;12.50;5.07;;;;;;;16.41;54.24;101374.34;124280;1102;101840;-76
2023/10/05 01:06:56;;;;;;;11.13;5.50;;;;;;;16.38;54.35;101360.09;124236;1102;102033;-76
2023/10/05 01:12:28;;;;;;;14.77;5.60;;;;;;;16.33;53.83;101373.22;124266;1102;102031;-76
2023/10/05 01:15:01;;;;;;;14.77;5.73;;;;;;;16.26;53.77;101376.58;124273;1099;102035;-76
2023/10/05 01:17:35;;;;;;;12.58;5.35;;;;;;;16.22;53.63;101375.61;124326;1102;104179;-76
2023/10/05 01:20:12;;;;;;;12.73;5.22;;;;;;;16.19;53.98;101378.19;124345;1102;102275;-76
2023/10/05 01:22:44;;;;;;;13.03;5.50;;;;;;;16.16;54.40;101378.09;124365;1102;104179;-76
2023/10/05 01:25:16;;;;;;;11.87;5.10;;;;;;;16.16;53.80;101381.63;124377;1099;101833;-76
2023/10/05 01:27:50;;;;;;;13.23;5.13;;;;;;;16.15;53.84;101382.48;124360;1102;104121;-76
2023/10/05 01:30:22;;;;;;;13.62;4.92;;;;;;;16.16;54.36;101381.63;124393;1102;104272;-76
2023/10/05 01:32:54;;;;;;;17.00;5.07;;;;;;;16.16;53.77;101381.63;124333;1102;101976;-76
2023/10/05 01:35:26;;;;;;;15.63;5.47;;;;;;;16.20;54.42;101384.36;124313;1102;101878;-76
2023/10/05 01:37:59;;;;;;;11.23;5.13;;;;;;;16.22;54.36;101385.29;124279;1100;104264;-76
2023/10/05 01:40:31;;;;;;;11.73;4.67;;;;;;;16.23;54.62;101385.33;124342;1102;104252;-76
2023/10/05 01:43:02;;;;;;;15.63;5.23;;;;;;;16.25;53.94;101385.38;126601;1101;101840;-76
2023/10/05 01:45:34;;;;;;;14.97;5.60;;;;;;;16.21;54.49;101378.22;124323;1099;102070;-76
2023/10/05 01:48:12;;;;;;;12.60;5.40;;;;;;;16.13;54.03;101375.37;124290;1099;104348;-76
2023/10/05 01:50:44;;;;;;;11.87;5.37;;;;;;;16.05;53.86;101379.53;124289;1099;104245;-76
2023/10/05 01:53:17;;;;;;;11.83;5.20;;;;;;;15.97;54.40;101385.53;124270;1099;104304;-75
2023/10/05 01:55:52;;;;;;;9.90;4.73;;;;;;;15.91;53.79;101387.09;124222;1099;101845;-75
2023/10/05 01:58:24;;;;;;;13.97;5.03;;;;;;;15.85;53.90;101384.27;124231;1102;104195;-76
2023/10/05 02:00:56;;;;;;;13.53;5.07;;;;;;;15.77;54.50;101377.03;124195;1102;104242;-75
2023/10/05 02:03:27;;;;;;;13.20;5.50;;;;;;;15.70;54.04;101380.31;124410;1102;104166;-77
2023/10/05 02:06:05;;;;;;;18.40;5.53;;;;;;;15.65;54.07;101387.23;124365;1100;104275;-76
2023/10/05 02:08:36;;;;;;;12.10;5.30;;;;;;;15.60;54.10;101391.50;124349;1099;104221;-76
2023/10/05 02:11:09;;;;;;;11.67;5.10;;;;;;;15.57;54.36;101388.77;124307;1099;104248;-76
2023/10/05 02:13:41;;;;;;;11.13;4.80;;;;;;;15.55;55.14;101394.01;124229;1102;104172;-75
2023/10/05 02:16:17;;;;;;;11.07;4.90;;;;;;;15.53;54.79;101381.58;124258;1099;104630;-75
2023/10/05 02:18:49;;;;;;;11.60;5.20;;;;;;;15.49;55.20;101382.33;124225;1101;104173;-76
2023/10/05 02:21:30;;;;;;;12.00;5.00;;;;;;;15.48;54.65;101392.02;124374;1101;104233;-76
2023/10/05 02:24:10;;;;;;;11.60;5.30;;;;;;;15.43;54.51;101397.17;124275;1102;102100;-75
2023/10/05 02:27:09;;;;;;;14.87;5.67;;;;;;;15.38;54.89;101404.08;124295;1102;104390;-76
2023/10/05 02:29:42;;;;;;;12.30;5.00;;;;;;;15.32;55.89;101403.89;124374;1099;104214;-76
2023/10/05 02:32:21;;;;;;;13.60;5.40;;;;;;;15.30;54.79;101409.97;124301;1102;104207;-75
2023/10/05 02:35:06;;;;;;;14.43;5.30;;;;;;;15.27;55.54;101421.38;124408;1099;101881;-76
2023/10/05 02:37:40;;;;;;;18.27;5.80;;;;;;;15.24;55.65;101418.62;124374;1102;118325;-76
2023/10/05 02:40:13;;;;;;;15.85;5.47;;;;;;;15.23;55.55;101412.42;124324;1102;101957;-76
2023/10/05 02:42:45;;;;;;;16.25;5.80;;;;;;;15.19;55.36;101422.85;124393;1102;101920;-75
2023/10/05 02:45:17;;;;;;;14.87;5.90;;;;;;;15.16;56.15;101422.75;124279;1102;101983;-75
2023/10/05 02:47:51;;;;;;;15.60;5.60;;;;;;;15.13;56.35;101423.58;124235;1099;104198;-76
2023/10/05 02:50:23;;;;;;;14.77;5.57;;;;;;;15.12;56.43;101427.05;124210;1102;102000;-75
2023/10/05 02:52:55;;;;;;;17.47;5.90;;;;;;;15.11;56.74;101425.25;124218;1099;104855;-76
2023/10/05 02:55:32;;;;;;;15.57;5.67;;;;;;;15.12;56.06;101431.45;124292;1099;104182;-76
2023/10/05 02:58:03;;;;;;;13.90;5.33;;;;;;;15.11;56.37;101435.83;124175;1101;111812;-76
2023/10/05 03:00:37;;;;;;;13.37;5.50;;;;;;;15.10;57.04;101434.94;124256;1102;102022;-76
2023/10/05 03:03:08;;;;;;;;;;;;;;;15.07;56.84;101442.77;124342;1102;101967;-76
2023/10/05 03:05:42;;;;;;;13.90;5.37;;;;;;;15.04;56.87;101434.73;124336;1102;104278;-76
2023/10/05 03:08:14;;;;;;;18.77;6.13;;;;;;;15.03;57.01;101440.86;124554;1099;102802;-78
2023/10/05 03:10:45;;;;;;;14.00;5.70;;;;;;;15.00;57.40;101434.59;124472;1099;102262;-77
2023/10/05 03:13:18;;;;;;;12.63;4.83;;;;;;;14.98;57.18;101433.66;124508;1102;104408;-77
2023/10/05 03:15:54;;;;;;;12.10;5.43;;;;;;;14.92;57.68;101424.66;124606;1099;104195;-77
2023/10/05 03:18:26;;;;;;;16.73;6.03;;;;;;;14.88;57.66;101427.14;124421;1102;102143;-77
2023/10/05 03:20:58;;;;;;;14.93;6.00;;;;;;;14.84;57.39;101427.91;124507;1101;104221;-77
2023/10/05 03:23:30;;;;;;;12.93;5.67;;;;;;;14.80;58.12;101423.36;124472;1099;104233;-77
2023/10/05 03:26:02;;;;;;;15.77;5.43;;;;;;;14.74;57.30;101417.04;124500;1102;104179;-77
2023/10/05 03:28:35;;;;;;;16.57;5.77;;;;;;;14.72;57.60;101425.75;124473;1099;102752;-77
2023/10/05 03:31:14;;;;;;;11.90;5.07;;;;;;;14.66;57.57;101415.89;124452;1099;101952;-77
2023/10/05 03:33:51;;;;;;;13.53;5.37;;;;;;;14.62;57.97;101421.91;124497;1099;101820;-76
2023/10/05 03:36:23;;;;;;;15.60;5.67;;;;;;;14.59;57.43;101416.48;124446;1099;104107;-76
2023/10/05 03:38:56;;;;;;;13.27;5.60;;;;;;;14.57;57.94;101423.47;124368;1102;102135;-76
2023/10/05 03:41:30;;;;;;;13.07;5.30;;;;;;;14.56;57.61;101434.87;124334;1101;104217;-76
2023/10/05 03:44:03;;;;;;;13.20;5.37;;;;;;;14.52;57.65;101436.52;124269;1102;101945;-76
2023/10/05 03:46:35;;;;;;;16.12;5.42;;;;;;;14.49;58.22;101439.05;124385;1103;104160;-76
2023/10/05 03:49:06;;;;;;;14.67;5.80;;;;;;;14.49;57.52;101435.48;124348;1102;104179;-78
2023/10/05 03:51:42;;;;;;;12.80;5.80;;;;;;;14.51;57.94;101433.83;124281;1102;104159;-75
2023/10/05 03:54:14;;;;;;;16.33;5.50;;;;;;;14.53;58.35;101432.12;124192;1102;104239;-75
2023/10/05 03:56:50;;;;;;;14.47;5.17;;;;;;;14.52;57.48;101432.95;124237;1102;104281;-76
2023/10/05 03:59:22;;;;;;;13.03;5.40;;;;;;;14.57;58.33;101431.39;124329;1102;104218;-76
2023/10/05 04:01:54;;;;;;;15.17;4.93;;;;;;;14.61;57.64;101433.30;124493;1099;104239;-75
2023/10/05 04:04:28;;;;;;;30.87;7.07;;;;;;;14.64;58.19;101433.41;124419;1102;101810;-77
2023/10/05 04:07:00;;;;;;;17.13;5.57;;;;;;;14.64;57.62;101425.48;124529;1102;104319;-77
2023/10/05 04:09:33;;;;;;;24.60;5.90;;;;;;;14.68;57.48;101429.16;124558;1099;104287;-77
2023/10/05 04:12:05;;;;;;;20.57;6.27;;;;;;;14.69;58.32;101425.64;124403;1102;104514;-75
2023/10/05 04:14:38;;;;;;;15.55;5.60;;;;;;;14.66;57.87;101418.53;124406;1099;104213;-76
2023/10/05 04:17:11;;;;;;;13.20;5.40;;;;;;;14.65;57.47;101424.66;124445;1099;104178;-75
2023/10/05 04:19:42;;;;;;;78.65;12.60;;;;;;;14.61;58.58;101421.86;124518;1102;101989;-78
2023/10/05 04:22:14;;;;;;;18.70;6.40;;;;;;;14.62;57.82;101439.51;124380;1102;104239;-75
2023/10/05 04:24:45;;;;;;;65.30;9.23;;;;;;;14.64;57.78;101440.45;124411;1099;104284;-74
2023/10/05 04:27:18;;;;;;;18.93;6.00;;;;;;;14.64;57.74;101440.45;124352;1102;102326;-74
2023/10/05 04:29:50;;;;;;;16.70;5.90;;;;;;;14.65;58.13;101456.35;124328;1099;104169;-74
2023/10/05 04:32:22;;;;;;;15.17;5.93;;;;;;;14.64;58.36;101456.30;124395;1099;104326;-75
2023/10/05 04:34:53;;;;;;;16.87;6.03;;;;;;;14.56;58.34;101462.17;124350;1102;104239;-75
2023/10/05 04:37:25;;;;;;;19.67;5.80;;;;;;;14.49;58.38;101457.54;124417;1099;101897;-74
2023/10/05 04:39:59;;;;;;;16.33;5.90;;;;;;;14.43;58.57;101459.05;124338;1099;104169;-74
2023/10/05 04:42:31;;;;;;;12.95;5.65;;;;;;;14.41;57.99;101461.63;124468;1102;102273;-75
2023/10/05 04:45:11;;;;;;;16.20;5.50;;;;;;;14.36;58.12;101464.11;124362;1099;104210;-73
2023/10/05 04:47:45;;;;;;;17.10;6.00;;;;;;;14.30;58.20;101468.28;124157;1102;104204;-74
2023/10/05 04:50:17;;;;;;;15.80;5.67;;;;;;;14.25;58.06;101469.86;124276;1102;104185;-74
2023/10/05 04:52:51;;;;;;;15.33;6.07;;;;;;;14.18;58.20;101469.64;124487;1099;104165;-74
2023/10/05 04:55:31;;;;;;;22.37;6.78;;;;;;;14.14;58.39;101469.47;124584;1099;102041;-73
2023/10/05 04:58:21;;;;;;;19.67;6.13;;;;;;;14.08;58.91;101472.77;124433;1099;102122;-73
2023/10/05 05:01:15;;;;;;;15.93;6.13;;;;;;;14.07;58.79;101473.64;124446;1099;107973;-74
2023/10/05 05:03:55;;;;;;;19.45;6.40;;;;;;;14.06;58.96;101490.30;124574;1099;104178;-76
2023/10/05 05:06:27;;;;;;;16.23;7.00;;;;;;;14.03;58.96;101480.52;124706;1099;104085;-74
2023/10/05 05:09:00;;;;;;;25.07;7.30;;;;;;;14.08;59.21;101485.08;124597;1099;104257;-75
2023/10/05 05:11:31;;;;;;;24.53;6.60;;;;;;;14.10;59.29;101488.66;124708;1102;104347;-73
2023/10/05 05:14:03;;;;;;;18.67;5.93;;;;;;;14.11;59.45;101493.11;124634;1102;104175;-76
2023/10/05 05:16:35;;;;;;;14.43;6.37;;;;;;;14.14;59.00;101501.14;124644;1099;103331;-73
2023/10/05 05:19:07;;;;;;;14.83;5.87;;;;;;;14.15;59.73;101498.56;124608;1099;102336;-75
2023/10/05 05:21:38;;;;;;;17.33;6.00;;;;;;;14.17;59.81;101493.34;124544;1102;104267;-75
2023/10/05 05:24:13;;;;;;;20.97;6.27;;;;;;;14.18;58.85;101490.75;124614;1099;104175;-74
2023/10/05 05:26:46;;;;;;;16.07;6.07;;;;;;;14.22;59.29;101490.87;124745;1099;104333;-77
2023/10/05 05:29:18;;;;;;;15.33;6.17;;;;;;;14.22;59.04;101490.87;124567;1099;102277;-75
2023/10/05 05:31:50;;;;;;;18.23;6.90;;;;;;;14.17;59.78;101494.23;124690;1099;104187;-73
2023/10/05 05:34:25;;;;;;;15.47;6.13;;;;;;;14.14;59.99;101498.50;124657;1099;104188;-75
2023/10/05 05:36:56;;;;;;;24.93;6.73;;;;;;;14.15;59.43;101502.95;124797;1099;102134;-75
2023/10/05 05:39:28;;;;;;;15.27;6.00;;;;;;;14.16;59.35;101496.81;124683;1099;101904;-73
2023/10/05 05:42:05;;;;;;;14.47;5.87;;;;;;;14.17;60.16;101498.63;124751;1102;104312;-76
2023/10/05 05:44:36;;;;;;;17.80;6.03;;;;;;;14.15;59.48;101505.59;124820;1099;104278;-76
2023/10/05 05:47:10;;;;;;;19.40;5.53;;;;;;;14.15;60.00;101502.95;124762;1099;103393;-76
2023/10/05 05:49:41;;;;;;;19.15;5.50;;;;;;;14.13;60.00;101496.70;124283;1099;104221;-72
2023/10/05 05:52:18;;;;;;;22.53;5.73;;;;;;;14.20;59.96;101510.17;124760;1102;104111;-75
2023/10/05 05:54:50;;;;;;;18.40;5.07;;;;;;;14.27;60.13;101518.33;124664;1099;103723;-73
2023/10/05 05:57:24;;;;;;;11.97;4.83;;;;;;;14.34;59.50;101513.33;125313;1099;102427;-76
2023/10/05 05:59:54;;;;;;;;;;;;;;;14.42;59.54;101520.64;124502;1102;104920;-77
2023/10/05 06:02:25;;;;;;;15.93;5.80;;;;;;;14.50;60.04;101519.16;124441;1102;104175;-76
2023/10/05 06:04:59;;;;;;;13.40;5.70;;;;;;;14.58;59.87;101517.69;124307;1102;104217;-75
2023/10/05 06:07:38;;;;;;;18.07;5.43;;;;;;;14.65;60.00;101525.03;124250;1102;104245;-76
2023/10/05 06:10:14;;;;;;;19.80;5.43;;;;;;;14.71;59.34;101527.00;125761;1100;102183;-76
2023/10/05 06:12:50;;;;;;;17.15;5.50;;;;;;;14.78;59.48;101528.11;124375;1102;104182;-75
2023/10/05 06:15:24;;;;;;;14.00;5.50;;;;;;;14.86;59.36;101523.98;124203;1102;104309;-74
2023/10/05 06:17:59;;;;;;;15.27;6.03;;;;;;;14.91;59.08;101523.30;124163;1102;104448;-73
2023/10/05 06:20:35;;;;;;;21.00;5.87;;;;;;;14.97;59.83;101525.23;124196;1102;102345;-72
2023/10/05 06:23:07;;;;;;;16.23;6.22;;;;;;;15.04;58.98;101523.72;125584;1102;104277;-75
2023/10/05 06:25:39;;;;;;;17.23;5.67;;;;;;;15.07;58.98;101522.06;124792;1102;102456;-73
2023/10/05 06:28:10;;;;;;;23.87;5.80;;;;;;;15.16;59.51;101525.86;124379;1100;104198;-74
2023/10/05 06:30:42;;;;;;;17.00;5.30;;;;;;;15.24;59.67;101522.63;124398;1101;104204;-76
2023/10/05 06:33:17;;;;;;;18.03;5.20;;;;;;;15.35;59.69;101530.91;124356;1102;104278;-74
2023/10/05 06:35:49;;;;;;;20.30;5.67;;;;;;;15.46;58.69;101536.55;124327;1102;104201;-73
2023/10/05 06:38:20;;;;;;;14.40;5.20;;;;;;;15.54;58.88;101542.98;124303;1099;101831;-75
2023/10/05 06:40:57;;;;;;;16.50;5.73;;;;;;;15.60;58.63;101544.94;124690;1102;101938;-76
2023/10/05 06:43:35;;;;;;;12.57;4.90;;;;;;;15.66;58.57;101547.78;124565;1102;101957;-76
2023/10/05 06:46:14;;;;;;;12.97;4.83;;;;;;;15.75;58.49;101549.80;124430;1099;102489;-79
2023/10/05 06:48:53;;;;;;;23.30;5.20;;;;;;;15.84;59.05;101547.47;124601;1102;104233;-78
2023/10/05 06:51:29;;;;;;;15.10;4.73;;;;;;;15.95;58.41;101538.09;124585;1102;104175;-75
2023/10/05 06:54:06;;;;;;;15.67;4.77;;;;;;;16.08;58.25;101538.47;124359;1102;104201;-75
2023/10/05 06:56:54;;;;;;;15.27;5.07;;;;;;;16.17;58.37;101536.09;124348;1102;102188;-75
2023/10/05 06:59:25;;;;;;;13.73;5.13;;;;;;;16.27;57.83;101540.81;124464;1102;101862;-75
2023/10/05 07:01:59;;;;;;;17.07;5.30;;;;;;;16.41;58.30;101537.64;124298;1099;101868;-76
2023/10/05 07:04:31;;;;;;;14.38;4.97;;;;;;;16.54;57.85;101538.03;124439;1099;104245;-77
2023/10/05 07:07:03;;;;;;;15.83;4.70;;;;;;;16.68;57.79;101537.53;124480;1099;104185;-75
2023/10/05 07:09:37;;;;;;;19.93;5.90;;;;;;;16.81;57.76;101541.40;125837;1098;101865;-74
2023/10/05 07:12:16;;;;;;;20.23;5.47;;;;;;;16.95;57.48;101544.45;124682;1102;102812;-74
2023/10/05 07:15:08;;;;;;;13.87;5.23;;;;;;;17.09;56.95;101543.05;124265;1102;104188;-74
2023/10/05 07:17:45;;;;;;;14.67;4.93;;;;;;;17.23;57.07;101536.36;124286;1102;104372;-74
2023/10/05 07:20:19;;;;;;;;;;;;;;;17.33;56.00;101532.17;124304;1101;102061;-75
2023/10/05 07:22:53;;;;;;;15.67;5.93;;;;;;;17.43;56.73;101533.28;124537;1099;104242;-79
2023/10/05 07:25:25;;;;;;;15.70;5.00;;;;;;;17.51;56.60;101531.70;124808;1099;103657;-78
2023/10/05 07:27:58;;;;;;;17.33;5.27;;;;;;;17.58;56.63;101528.34;124528;1099;104304;-77
2023/10/05 07:30:51;;;;;;;16.00;5.00;;;;;;;17.71;56.27;101531.27;125972;1098;102225;-78
2023/10/05 07:33:35;;;;;;;18.23;5.10;;;;;;;17.82;55.89;101529.75;124209;1099;104309;-73
2023/10/05 07:36:07;;;;;;;15.50;4.97;;;;;;;17.93;55.65;101524.72;124158;1099;104242;-75
2023/10/05 07:38:39;;;;;;;16.25;5.60;;;;;;;17.99;55.52;101519.53;124431;1099;103748;-74
2023/10/05 07:41:11;;;;;;;13.80;5.00;;;;;;;18.11;55.31;101527.77;124420;1099;104236;-74
2023/10/05 07:43:46;;;;;;;13.90;4.93;;;;;;;18.22;55.02;101527.99;124308;1102;104199;-78
2023/10/05 07:46:25;;;;;;;;;;;;;;;18.33;54.26;101521.13;124672;1099;102050;-75
2023/10/05 07:48:59;;;;;;;11.77;4.53;;;;;;;18.42;54.60;101515.11;124269;1102;104163;-74
2023/10/05 07:51:30;;;;;;;;;;;;;;;18.47;53.06;101526.72;124913;1099;101871;-78
2023/10/05 07:54:02;;;;;;;10.97;4.67;;;;;;;18.50;53.19;101526.78;124728;1102;104242;-80
2023/10/05 07:56:34;;;;;;;14.33;3.97;;;;;;;18.59;53.26;101525.16;124653;1102;104172;-79
2023/10/05 07:59:08;;;;;;;8.83;4.37;;;;;;;18.71;53.42;101521.84;124632;1102;101997;-79
2023/10/05 08:01:40;;;;;;;18.40;4.83;;;;;;;18.80;53.07;101522.91;124323;1099;104223;-74
2023/10/05 08:04:17;;;;;;;11.03;4.37;;;;;;;18.92;52.58;101522.27;124202;1102;102016;-75
2023/10/05 08:06:50;;;;;;;14.13;4.50;;;;;;;19.03;52.81;101519.80;124113;1102;104277;-72
2023/10/05 08:09:23;;;;;;;15.00;4.70;;;;;;;19.11;52.28;101514.61;124216;1099;102083;-75
2023/10/05 08:11:59;;;;;;;14.00;4.57;;;;;;;19.16;52.36;101510.25;125146;1099;101933;-75
2023/10/05 08:14:32;;;;;;;12.13;4.47;;;;;;;19.25;51.55;101517.50;125751;1098;104335;-74
2023/10/05 08:17:05;;;;;;;14.93;4.37;;;;;;;19.34;51.22;101507.89;124195;1102;101970;-76
2023/10/05 08:19:38;;;;;;;14.67;4.33;;;;;;;19.39;51.81;101503.52;124106;1102;104140;-73
2023/10/05 08:22:09;;;;;;;;;;;;;;;19.51;50.75;101512.55;124285;1102;101880;-74
2023/10/05 08:24:40;;;;;;;13.27;4.47;;;;;;;19.64;50.78;101509.22;124276;1099;104223;-73
2023/10/05 08:27:14;;;;;;;15.53;4.23;;;;;;;19.77;50.91;101504.10;124260;1099;104402;-76
2023/10/05 08:29:45;;;;;;;15.95;5.28;;;;;;;19.81;50.66;101501.50;124279;1102;104089;-73
2023/10/05 08:32:25;;;;;;;14.23;4.20;;;;;;;19.87;51.14;101498.04;124203;1100;101920;-73
2023/10/05 08:35:06;;;;;;;14.37;4.17;;;;;;;19.91;49.16;101502.51;124367;1102;101900;-75
2023/10/05 08:37:42;;;;;;;12.13;4.50;;;;;;;19.89;49.03;101493.62;124261;1099;104268;-75
2023/10/05 08:40:38;;;;;;;8.90;3.77;;;;;;;19.89;48.71;101493.62;125696;1097;102326;-74
2023/10/05 08:43:11;;;;;;;13.00;4.00;;;;;;;19.97;49.14;101489.27;124281;1102;104248;-76
2023/10/05 08:45:50;;;;;;;10.47;3.60;;;;;;;20.03;48.81;101488.47;124324;1099;104204;-75
2023/10/05 08:48:35;;;;;;;11.00;3.87;;;;;;;20.11;48.50;101487.66;124456;1099;102107;-73
2023/10/05 08:51:10;;;;;;;11.07;3.93;;;;;;;20.25;48.56;101478.95;124422;1099;104152;-76
2023/10/05 08:53:48;;;;;;;8.07;3.90;;;;;;;20.36;47.93;101471.97;125668;1098;104175;-74
2023/10/05 08:56:23;;;;;;;10.77;3.73;;;;;;;20.52;48.33;101472.12;124310;1098;101913;-76
2023/10/05 08:58:59;;;;;;;11.40;4.20;;;;;;;20.55;47.58;101469.49;124225;1102;104242;-74
2023/10/05 09:01:33;;;;;;;11.93;4.47;;;;;;;20.48;46.78;101468.55;124156;1102;104169;-72
2023/10/05 09:04:23;;;;;;;11.70;4.33;;;;;;;20.50;47.54;101464.11;124147;1102;104226;-73
2023/10/05 09:06:56;;;;;;;11.30;3.47;;;;;;;20.63;47.46;101454.45;124157;1101;102131;-75
2023/10/05 09:09:38;;;;;;;10.70;4.00;;;;;;;20.74;47.41;101455.50;124146;1099;104277;-74
2023/10/05 09:12:34;;;;;;;10.27;3.70;;;;;;;20.83;47.07;101450.25;124196;1100;104274;-77
2023/10/05 09:15:19;;;;;;;13.00;3.93;;;;;;;20.88;46.46;101457.37;124224;1099;102332;-76
2023/10/05 09:18:17;;;;;;;7.77;3.77;;;;;;;20.83;45.41;101444.00;124237;1099;103638;-74
2023/10/05 09:20:53;;;;;;;12.23;3.93;;;;;;;20.93;45.65;101439.66;124099;1099;104361;-75
2023/10/05 09:23:33;;;;;;;12.37;3.40;;;;;;;20.99;45.40;101439.70;124162;1102;104236;-74
2023/10/05 09:26:06;;;;;;;11.27;4.17;;;;;;;21.08;45.96;101434.41;124140;1102;111589;-73
2023/10/05 09:28:52;;;;;;;8.80;3.87;;;;;;;21.03;44.26;101435.28;124235;1102;104230;-76
2023/10/05 09:31:41;;;;;;;9.60;3.47;;;;;;;20.93;44.25;101436.98;124130;1101;104217;-75
2023/10/05 09:34:49;;;;;;;8.50;3.73;;;;;;;21.06;44.27;101440.64;124130;1102;104216;-74
2023/10/05 09:37:23;;;;;;;9.93;4.20;;;;;;;21.10;44.35;101435.33;124153;1099;104121;-80
2023/10/05 09:40:00;;;;;;;11.87;4.57;;;;;;;21.11;43.74;101436.22;124194;1099;104165;-73
2023/10/05 09:42:40;;;;;;;8.30;4.03;;;;;;;21.17;43.84;101430.92;124128;1099;104230;-75
2023/10/05 09:45:14;;;;;;;10.90;4.00;;;;;;;21.27;44.55;101427.44;124146;1102;104249;-73
2023/10/05 09:47:47;;;;;;;10.53;3.98;;;;;;;21.29;44.18;101424.78;124116;1101;101785;-74
2023/10/05 09:50:21;;;;;;;9.60;3.80;;;;;;;21.22;43.15;101418.49;125602;1098;102161;-73
2023/10/05 09:52:59;;;;;;;11.00;3.83;;;;;;;21.23;43.92;101414.95;124139;1101;102009;-73
2023/10/05 09:55:37;;;;;;;8.73;3.87;;;;;;;21.18;43.52;101414.04;124139;1099;104369;-72
2023/10/05 09:58:26;;;;;;;7.67;4.20;;;;;;;21.12;42.63;101414.00;124112;1102;104214;-75
2023/10/05 10:01:12;;;;;;;10.30;4.67;;;;;;;21.16;42.28;101407.78;124221;1099;103382;-74
2023/10/05 10:03:48;;;;;;;8.27;4.20;;;;;;;21.16;43.23;101399.77;124134;1102;104169;-74
2023/10/05 10:06:28;;;;;;;10.40;4.30;;;;;;;21.18;43.15;101395.36;124092;1100;104208;-74
2023/10/05 10:09:09;;;;;;;6.73;3.97;;;;;;;21.20;42.47;101380.23;124186;1099;104175;-75
2023/10/05 10:11:45;;;;;;;9.97;4.37;;;;;;;21.26;42.69;101379.39;124127;1102;104303;-74
2023/10/05 10:14:26;;;;;;;8.27;4.10;;;;;;;21.27;41.66;101375.81;124148;1102;104341;-75
2023/10/05 10:17:08;;;;;;;11.50;4.30;;;;;;;21.32;42.06;101360.74;124124;1102;102780;-74
2023/10/05 10:19:45;;;;;;;11.20;3.90;;;;;;;21.48;41.67;101361.70;124258;1099;104214;-76
2023/10/05 10:22:28;;;;;;;10.93;3.90;;;;;;;21.59;42.33;101354.64;124469;1101;102006;-75
2023/10/05 10:25:10;;;;;;;9.90;4.07;;;;;;;21.67;42.27;101357.34;124355;1098;104329;-76
2023/10/05 10:27:44;;;;;;;9.85;4.20;;;;;;;21.68;41.80;101348.45;124208;1102;107050;-74
2023/10/05 10:30:18;;;;;;;13.13;4.43;;;;;;;21.65;41.57;101346.66;124179;1102;104211;-75
2023/10/05 10:33:30;;;;;;;9.67;4.50;;;;;;;21.62;42.02;101338.64;124358;1100;104252;-76
2023/10/05 10:36:19;;;;;;;12.67;4.07;;;;;;;21.59;41.51;101333.28;124222;1099;104179;-73
2023/10/05 10:38:52;;;;;;;12.10;4.27;;;;;;;21.53;41.26;101328.83;124284;1100;104169;-73
2023/10/05 10:41:30;;;;;;;11.43;4.23;;;;;;;21.53;40.53;101319.91;124165;1102;104275;-72
2023/10/05 10:44:23;;;;;;;8.37;3.97;;;;;;;21.53;41.63;101317.23;124185;1099;104673;-76
2023/10/05 10:47:11;;;;;;;10.63;4.13;;;;;;;21.60;41.23;101315.47;124159;1102;104204;-73
2023/10/05 10:50:11;;;;;;;10.63;3.87;;;;;;;21.68;40.62;101303.05;124264;1099;102206;-75
2023/10/05 10:52:56;;;;;;;8.47;4.20;;;;;;;21.65;41.18;101292.36;125380;1101;102435;-74
2023/10/05 10:55:34;;;;;;;14.40;4.17;;;;;;;21.70;40.47;101285.24;124188;1102;102059;-79
2023/10/05 10:58:13;;;;;;;10.13;4.50;;;;;;;21.71;41.19;101284.37;124265;1099;104172;-75
2023/10/05 11:00:59;;;;;;;8.23;3.87;;;;;;;21.70;41.05;101277.23;124167;1099;102322;-76
2023/10/05 11:03:36;;;;;;;10.17;3.93;;;;;;;21.69;41.02;101275.44;125124;1102;102256;-76
2023/10/05 11:06:15;;;;;;;9.53;3.90;;;;;;;21.77;40.81;101271.02;124259;1102;104220;-76
2023/10/05 11:08:54;;;;;;;10.37;4.03;;;;;;;21.82;40.77;101266.57;124300;1102;104261;-75
2023/10/05 11:11:27;;;;;;;10.90;4.37;;;;;;;21.90;40.47;101254.11;124260;1102;101868;-77
2023/10/05 11:14:05;;;;;;;;;;;;;;;21.99;40.56;101252.35;124232;1102;101980;-76
2023/10/05 11:16:59;;;;;;;9.03;4.10;;;;;;;22.13;40.32;101250.56;124130;1102;103599;-72
2023/10/05 11:19:49;;;;;;;10.83;4.43;;;;;;;22.22;40.48;101247.89;124145;1102;104245;-74
2023/10/05 11:22:25;;;;;;;9.87;4.40;;;;;;;22.26;40.75;101233.61;124034;1102;102487;-73
2023/10/05 11:25:15;;;;;;;9.30;4.03;;;;;;;22.32;40.44;101232.76;124103;1102;104187;-75
2023/10/05 11:28:04;;;;;;;7.97;3.97;;;;;;;22.37;40.31;101230.96;124136;1100;104166;-75
2023/10/05 11:30:48;;;;;;;7.87;4.30;;;;;;;22.40;40.23;101230.08;124162;1102;104262;-75
2023/10/05 11:33:42;;;;;;;7.90;3.92;;;;;;;22.37;39.99;101224.73;124219;1102;104198;-72
2023/10/05 11:36:21;;;;;;;8.40;4.50;;;;;;;22.35;39.64;101213.16;124157;1102;104252;-74
2023/10/05 11:38:57;;;;;;;10.97;4.20;;;;;;;22.32;39.76;101206.02;124128;1101;101978;-74
2023/10/05 11:41:33;;;;;;;10.97;4.20;;;;;;;22.35;40.00;101198.00;124151;1102;103398;-74
2023/10/05 11:44:12;;;;;;;10.30;4.33;;;;;;;22.37;39.79;101204.22;124233;1102;101827;-73
2023/10/05 11:46:53;;;;;;;10.07;4.40;;;;;;;22.41;39.11;101205.12;124211;1102;104273;-72
2023/10/05 11:49:30;;;;;;;11.90;4.30;;;;;;;22.44;39.76;101200.66;124082;1102;107113;-73